sensor_id;sensor_type;location;lat;lon;timestamp;P1;durP1;ratioP1;P2;durP2;ratioP2
39176;SDS011;24904;52.208;21.192;2022-12-18T00:01:36;29.50;;;15.90;;
39176;SDS011;24904;52.208;21.192;2022-12-18T00:06:41;28.00;;;15.10;;
39176;SDS011;24904;52.208;21.192;2022-12-18T00:11:46;32.80;;;16.20;;
39176;SDS011;24904;52.208;21.192;2022-12-18T00:16:51;29.80;;;16.60;;
39176;SDS011;24904;52.208;21.192;2022-12-18T00:21:56;33.40;;;17.00;;
39176;SDS011;24904;52.208;21.192;2022-12-18T00:27:02;28.00;;;15.50;;
39176;SDS011;24904;52.208;21.192;2022-12-18T00:32:07;31.30;;;16.60;;
39176;SDS011;24904;52.208;21.192;2022-12-18T00:37:12;30.80;;;17.30;;
39176;SDS011;24904;52.208;21.192;2022-12-18T00:42:17;34.80;;;17.90;;
39176;SDS011;24904;52.208;21.192;2022-12-18T00:47:40;33.00;;;18.20;;
39176;SDS011;24904;52.208;21.192;2022-12-18T00:52:45;30.80;;;18.00;;
39176;SDS011;24904;52.208;21.192;2022-12-18T00:57:52;35.90;;;16.80;;
39176;SDS011;24904;52.208;21.192;2022-12-18T01:02:57;33.70;;;19.30;;
39176;SDS011;24904;52.208;21.192;2022-12-18T01:08:02;30.90;;;18.00;;
39176;SDS011;24904;52.208;21.192;2022-12-18T01:13:07;36.40;;;18.90;;
39176;SDS011;24904;52.208;21.192;2022-12-18T01:18:12;31.10;;;17.70;;
39176;SDS011;24904;52.208;21.192;2022-12-18T01:23:17;23.90;;;16.00;;
39176;SDS011;24904;52.208;21.192;2022-12-18T01:28:23;30.10;;;16.20;;
39176;SDS011;24904;52.208;21.192;2022-12-18T01:40:39;29.00;;;16.90;;
39176;SDS011;24904;52.208;21.192;2022-12-18T01:45:42;27.10;;;15.30;;
39176;SDS011;24904;52.208;21.192;2022-12-18T01:50:45;26.20;;;14.10;;
39176;SDS011;24904;52.208;21.192;2022-12-18T01:55:49;26.60;;;14.50;;
39176;SDS011;24904;52.208;21.192;2022-12-18T02:00:55;25.90;;;15.20;;
39176;SDS011;24904;52.208;21.192;2022-12-18T02:05:59;24.80;;;13.50;;
39176;SDS011;24904;52.208;21.192;2022-12-18T02:11:15;29.60;;;16.40;;
39176;SDS011;24904;52.208;21.192;2022-12-18T02:16:30;23.50;;;13.90;;
39176;SDS011;24904;52.208;21.192;2022-12-18T02:21:46;24.00;;;13.40;;
39176;SDS011;24904;52.208;21.192;2022-12-18T02:26:57;26.80;;;14.10;;
39176;SDS011;24904;52.208;21.192;2022-12-18T02:32:06;27.50;;;14.40;;
39176;SDS011;24904;52.208;21.192;2022-12-18T02:37:13;26.50;;;13.30;;
39176;SDS011;24904;52.208;21.192;2022-12-18T02:42:20;24.40;;;13.90;;
39176;SDS011;24904;52.208;21.192;2022-12-18T02:47:24;24.70;;;13.40;;
39176;SDS011;24904;52.208;21.192;2022-12-18T02:52:35;20.90;;;11.80;;
39176;SDS011;24904;52.208;21.192;2022-12-18T02:57:49;27.90;;;14.20;;
39176;SDS011;24904;52.208;21.192;2022-12-18T03:03:02;23.20;;;12.20;;
39176;SDS011;24904;52.208;21.192;2022-12-18T03:08:14;23.40;;;12.60;;
39176;SDS011;24904;52.208;21.192;2022-12-18T03:13:22;25.70;;;12.20;;
39176;SDS011;24904;52.208;21.192;2022-12-18T03:18:30;21.10;;;11.60;;
39176;SDS011;24904;52.208;21.192;2022-12-18T03:24:57;24.10;;;13.10;;
39176;SDS011;24904;52.208;21.192;2022-12-18T03:30:10;22.80;;;11.40;;
39176;SDS011;24904;52.208;21.192;2022-12-18T03:35:19;19.80;;;11.90;;
39176;SDS011;24904;52.208;21.192;2022-12-18T03:40:29;22.60;;;12.70;;
39176;SDS011;24904;52.208;21.192;2022-12-18T03:45:46;19.50;;;11.30;;
39176;SDS011;24904;52.208;21.192;2022-12-18T03:50:56;24.50;;;12.00;;
39176;SDS011;24904;52.208;21.192;2022-12-18T03:56:05;18.50;;;11.20;;
39176;SDS011;24904;52.208;21.192;2022-12-18T04:01:14;14.40;;;9.30;;
39176;SDS011;24904;52.208;21.192;2022-12-18T04:06:21;16.00;;;9.60;;
39176;SDS011;24904;52.208;21.192;2022-12-18T04:11:28;15.60;;;9.00;;
39176;SDS011;24904;52.208;21.192;2022-12-18T04:16:34;19.90;;;10.00;;
39176;SDS011;24904;52.208;21.192;2022-12-18T04:21:40;16.00;;;10.10;;
39176;SDS011;24904;52.208;21.192;2022-12-18T04:27:03;18.30;;;10.20;;
39176;SDS011;24904;52.208;21.192;2022-12-18T04:32:15;20.00;;;10.30;;
39176;SDS011;24904;52.208;21.192;2022-12-18T04:37:20;20.50;;;9.80;;
39176;SDS011;24904;52.208;21.192;2022-12-18T04:42:26;17.60;;;9.60;;
39176;SDS011;24904;52.208;21.192;2022-12-18T04:47:31;15.50;;;8.90;;
39176;SDS011;24904;52.208;21.192;2022-12-18T04:52:36;18.20;;;9.50;;
39176;SDS011;24904;52.208;21.192;2022-12-18T04:57:41;12.40;;;8.50;;
39176;SDS011;24904;52.208;21.192;2022-12-18T05:02:46;19.00;;;9.60;;
39176;SDS011;24904;52.208;21.192;2022-12-18T05:07:51;15.80;;;8.90;;
39176;SDS011;24904;52.208;21.192;2022-12-18T05:12:56;14.80;;;8.30;;
39176;SDS011;24904;52.208;21.192;2022-12-18T05:18:01;15.40;;;7.60;;
39176;SDS011;24904;52.208;21.192;2022-12-18T05:23:07;14.10;;;8.40;;
39176;SDS011;24904;52.208;21.192;2022-12-18T05:28:12;16.10;;;9.00;;
39176;SDS011;24904;52.208;21.192;2022-12-18T05:33:17;18.00;;;10.70;;
39176;SDS011;24904;52.208;21.192;2022-12-18T05:38:22;21.10;;;11.10;;
39176;SDS011;24904;52.208;21.192;2022-12-18T05:43:29;19.60;;;9.80;;
39176;SDS011;24904;52.208;21.192;2022-12-18T05:48:36;13.40;;;7.90;;
39176;SDS011;24904;52.208;21.192;2022-12-18T05:53:41;17.10;;;9.40;;
39176;SDS011;24904;52.208;21.192;2022-12-18T05:58:47;16.40;;;9.00;;
39176;SDS011;24904;52.208;21.192;2022-12-18T06:03:54;16.10;;;8.50;;
39176;SDS011;24904;52.208;21.192;2022-12-18T06:08:59;16.30;;;8.90;;
39176;SDS011;24904;52.208;21.192;2022-12-18T06:14:09;17.80;;;10.00;;
39176;SDS011;24904;52.208;21.192;2022-12-18T06:19:15;18.00;;;9.80;;
39176;SDS011;24904;52.208;21.192;2022-12-18T06:24:20;20.10;;;9.60;;
39176;SDS011;24904;52.208;21.192;2022-12-18T06:29:25;16.60;;;9.60;;
39176;SDS011;24904;52.208;21.192;2022-12-18T06:34:30;16.30;;;9.50;;
39176;SDS011;24904;52.208;21.192;2022-12-18T06:39:36;18.50;;;10.40;;
39176;SDS011;24904;52.208;21.192;2022-12-18T06:44:41;15.80;;;10.10;;
39176;SDS011;24904;52.208;21.192;2022-12-18T06:49:46;20.20;;;11.30;;
39176;SDS011;24904;52.208;21.192;2022-12-18T06:54:51;23.10;;;12.30;;
39176;SDS011;24904;52.208;21.192;2022-12-18T06:59:56;18.70;;;10.20;;
39176;SDS011;24904;52.208;21.192;2022-12-18T07:05:01;26.00;;;12.40;;
39176;SDS011;24904;52.208;21.192;2022-12-18T07:10:07;19.10;;;10.30;;
39176;SDS011;24904;52.208;21.192;2022-12-18T07:15:12;24.00;;;11.40;;
39176;SDS011;24904;52.208;21.192;2022-12-18T07:20:17;27.10;;;12.10;;
39176;SDS011;24904;52.208;21.192;2022-12-18T07:25:22;23.10;;;12.80;;
39176;SDS011;24904;52.208;21.192;2022-12-18T07:30:27;24.10;;;12.90;;
39176;SDS011;24904;52.208;21.192;2022-12-18T07:35:33;26.30;;;13.00;;
39176;SDS011;24904;52.208;21.192;2022-12-18T07:40:38;27.50;;;13.50;;
39176;SDS011;24904;52.208;21.192;2022-12-18T07:45:43;28.30;;;14.40;;
39176;SDS011;24904;52.208;21.192;2022-12-18T07:50:52;30.70;;;15.80;;
39176;SDS011;24904;52.208;21.192;2022-12-18T07:55:57;29.90;;;14.70;;
39176;SDS011;24904;52.208;21.192;2022-12-18T08:01:04;26.80;;;14.40;;
39176;SDS011;24904;52.208;21.192;2022-12-18T08:06:11;26.70;;;14.00;;
39176;SDS011;24904;52.208;21.192;2022-12-18T08:11:16;29.00;;;14.80;;
39176;SDS011;24904;52.208;21.192;2022-12-18T08:22:47;32.40;;;15.40;;
39176;SDS011;24904;52.208;21.192;2022-12-18T08:27:52;30.30;;;15.30;;
39176;SDS011;24904;52.208;21.192;2022-12-18T08:32:58;40.60;;;18.60;;
39176;SDS011;24904;52.208;21.192;2022-12-18T08:38:03;35.40;;;19.00;;
39176;SDS011;24904;52.208;21.192;2022-12-18T08:43:08;45.30;;;19.30;;
39176;SDS011;24904;52.208;21.192;2022-12-18T08:48:31;48.10;;;20.80;;
39176;SDS011;24904;52.208;21.192;2022-12-18T08:53:37;41.80;;;20.70;;
39176;SDS011;24904;52.208;21.192;2022-12-18T08:58:43;48.00;;;21.00;;
39176;SDS011;24904;52.208;21.192;2022-12-18T09:03:48;50.10;;;22.70;;
39176;SDS011;24904;52.208;21.192;2022-12-18T09:08:53;47.10;;;21.10;;
39176;SDS011;24904;52.208;21.192;2022-12-18T09:14:00;51.20;;;22.70;;
39176;SDS011;24904;52.208;21.192;2022-12-18T09:19:05;51.40;;;21.30;;
39176;SDS011;24904;52.208;21.192;2022-12-18T09:24:13;48.70;;;23.60;;
39176;SDS011;24904;52.208;21.192;2022-12-18T09:29:19;47.00;;;22.60;;
39176;SDS011;24904;52.208;21.192;2022-12-18T09:34:24;47.80;;;22.00;;
39176;SDS011;24904;52.208;21.192;2022-12-18T09:39:29;47.10;;;22.20;;
39176;SDS011;24904;52.208;21.192;2022-12-18T09:44:35;44.70;;;23.20;;
39176;SDS011;24904;52.208;21.192;2022-12-18T09:49:44;44.00;;;19.90;;
39176;SDS011;24904;52.208;21.192;2022-12-18T09:54:53;45.30;;;21.10;;
39176;SDS011;24904;52.208;21.192;2022-12-18T10:00:04;37.70;;;18.50;;
39176;SDS011;24904;52.208;21.192;2022-12-18T10:05:20;34.90;;;17.50;;
39176;SDS011;24904;52.208;21.192;2022-12-18T10:10:36;46.20;;;19.80;;
39176;SDS011;24904;52.208;21.192;2022-12-18T10:15:49;38.20;;;18.40;;
39176;SDS011;24904;52.208;21.192;2022-12-18T10:33:38;41.30;;;20.10;;
39176;SDS011;24904;52.208;21.192;2022-12-18T10:38:46;35.30;;;18.30;;
39176;SDS011;24904;52.208;21.192;2022-12-18T10:43:51;38.40;;;18.50;;
39176;SDS011;24904;52.208;21.192;2022-12-18T10:49:23;43.40;;;21.10;;
39176;SDS011;24904;52.208;21.192;2022-12-18T11:01:12;41.90;;;21.10;;
39176;SDS011;24904;52.208;21.192;2022-12-18T11:06:19;41.70;;;19.90;;
39176;SDS011;24904;52.208;21.192;2022-12-18T11:11:26;42.90;;;21.50;;
39176;SDS011;24904;52.208;21.192;2022-12-18T11:16:33;45.20;;;21.50;;
39176;SDS011;24904;52.208;21.192;2022-12-18T11:21:40;43.30;;;21.30;;
39176;SDS011;24904;52.208;21.192;2022-12-18T11:26:46;44.60;;;22.40;;
39176;SDS011;24904;52.208;21.192;2022-12-18T11:31:51;46.10;;;22.50;;
39176;SDS011;24904;52.208;21.192;2022-12-18T11:37:15;39.50;;;20.10;;
39176;SDS011;24904;52.208;21.192;2022-12-18T11:42:22;37.40;;;20.20;;
39176;SDS011;24904;52.208;21.192;2022-12-18T11:47:37;41.30;;;20.70;;
39176;SDS011;24904;52.208;21.192;2022-12-18T11:52:47;42.90;;;21.80;;
39176;SDS011;24904;52.208;21.192;2022-12-18T11:57:54;49.10;;;22.10;;
39176;SDS011;24904;52.208;21.192;2022-12-18T12:03:18;49.40;;;23.40;;
39176;SDS011;24904;52.208;21.192;2022-12-18T12:08:33;46.10;;;23.50;;
39176;SDS011;24904;52.208;21.192;2022-12-18T12:13:48;56.50;;;25.00;;
39176;SDS011;24904;52.208;21.192;2022-12-18T12:19:11;52.60;;;24.20;;
39176;SDS011;24904;52.208;21.192;2022-12-18T12:24:27;51.60;;;24.90;;
39176;SDS011;24904;52.208;21.192;2022-12-18T12:29:43;51.30;;;23.00;;
39176;SDS011;24904;52.208;21.192;2022-12-18T12:34:58;48.00;;;22.90;;
39176;SDS011;24904;52.208;21.192;2022-12-18T12:40:17;45.80;;;23.00;;
39176;SDS011;24904;52.208;21.192;2022-12-18T12:45:28;52.20;;;23.60;;
39176;SDS011;24904;52.208;21.192;2022-12-18T12:50:39;44.00;;;20.00;;
39176;SDS011;24904;52.208;21.192;2022-12-18T12:55:45;47.90;;;22.60;;
39176;SDS011;24904;52.208;21.192;2022-12-18T13:00:53;54.40;;;24.50;;
39176;SDS011;24904;52.208;21.192;2022-12-18T13:06:04;55.10;;;24.90;;
39176;SDS011;24904;52.208;21.192;2022-12-18T13:11:16;53.10;;;24.10;;
39176;SDS011;24904;52.208;21.192;2022-12-18T13:16:52;52.60;;;24.30;;
39176;SDS011;24904;52.208;21.192;2022-12-18T13:22:39;50.70;;;24.40;;
39176;SDS011;24904;52.208;21.192;2022-12-18T13:27:51;47.50;;;23.90;;
39176;SDS011;24904;52.208;21.192;2022-12-18T13:38:55;49.20;;;23.80;;
39176;SDS011;24904;52.208;21.192;2022-12-18T13:44:31;51.40;;;24.60;;
39176;SDS011;24904;52.208;21.192;2022-12-18T13:49:38;52.20;;;24.10;;
39176;SDS011;24904;52.208;21.192;2022-12-18T13:54:47;49.20;;;22.60;;
39176;SDS011;24904;52.208;21.192;2022-12-18T13:59:56;60.30;;;24.90;;
39176;SDS011;24904;52.208;21.192;2022-12-18T14:05:22;50.10;;;24.00;;
39176;SDS011;24904;52.208;21.192;2022-12-18T14:10:28;46.80;;;23.40;;
39176;SDS011;24904;52.208;21.192;2022-12-18T14:15:34;53.20;;;25.40;;
39176;SDS011;24904;52.208;21.192;2022-12-18T14:20:43;47.90;;;23.80;;
39176;SDS011;24904;52.208;21.192;2022-12-18T14:25:52;58.70;;;25.40;;
39176;SDS011;24904;52.208;21.192;2022-12-18T14:30:57;54.40;;;25.40;;
39176;SDS011;24904;52.208;21.192;2022-12-18T14:36:03;52.70;;;24.40;;
39176;SDS011;24904;52.208;21.192;2022-12-18T14:41:19;54.20;;;23.40;;
39176;SDS011;24904;52.208;21.192;2022-12-18T14:46:30;49.30;;;23.70;;
39176;SDS011;24904;52.208;21.192;2022-12-18T14:51:38;51.10;;;22.60;;
39176;SDS011;24904;52.208;21.192;2022-12-18T14:56:50;47.60;;;22.80;;
39176;SDS011;24904;52.208;21.192;2022-12-18T15:02:00;47.00;;;24.50;;
39176;SDS011;24904;52.208;21.192;2022-12-18T15:07:13;46.80;;;23.90;;
39176;SDS011;24904;52.208;21.192;2022-12-18T15:12:24;48.10;;;23.70;;
39176;SDS011;24904;52.208;21.192;2022-12-18T15:17:36;45.60;;;23.20;;
39176;SDS011;24904;52.208;21.192;2022-12-18T15:22:41;50.30;;;23.10;;
39176;SDS011;24904;52.208;21.192;2022-12-18T15:27:50;48.90;;;23.90;;
39176;SDS011;24904;52.208;21.192;2022-12-18T15:46:14;51.20;;;24.90;;
39176;SDS011;24904;52.208;21.192;2022-12-18T15:51:20;43.10;;;22.70;;
39176;SDS011;24904;52.208;21.192;2022-12-18T15:56:25;45.80;;;22.30;;
39176;SDS011;24904;52.208;21.192;2022-12-18T16:01:47;42.60;;;20.40;;
39176;SDS011;24904;52.208;21.192;2022-12-18T16:06:52;40.20;;;21.70;;
39176;SDS011;24904;52.208;21.192;2022-12-18T16:11:55;42.40;;;20.10;;
39176;SDS011;24904;52.208;21.192;2022-12-18T16:16:59;43.30;;;20.50;;
39176;SDS011;24904;52.208;21.192;2022-12-18T16:22:03;44.40;;;22.20;;
39176;SDS011;24904;52.208;21.192;2022-12-18T16:27:07;44.60;;;21.90;;
39176;SDS011;24904;52.208;21.192;2022-12-18T16:32:11;36.80;;;16.90;;
39176;SDS011;24904;52.208;21.192;2022-12-18T16:37:16;44.60;;;21.40;;
39176;SDS011;24904;52.208;21.192;2022-12-18T16:42:20;48.20;;;23.20;;
39176;SDS011;24904;52.208;21.192;2022-12-18T16:47:26;43.70;;;21.30;;
39176;SDS011;24904;52.208;21.192;2022-12-18T16:52:37;44.10;;;20.60;;
39176;SDS011;24904;52.208;21.192;2022-12-18T16:57:40;40.80;;;20.50;;
39176;SDS011;24904;52.208;21.192;2022-12-18T17:02:45;49.30;;;23.70;;
39176;SDS011;24904;52.208;21.192;2022-12-18T17:07:51;43.80;;;20.80;;
39176;SDS011;24904;52.208;21.192;2022-12-18T17:12:54;37.20;;;19.20;;
39176;SDS011;24904;52.208;21.192;2022-12-18T17:17:57;43.70;;;20.80;;
39176;SDS011;24904;52.208;21.192;2022-12-18T17:23:00;47.60;;;21.90;;
39176;SDS011;24904;52.208;21.192;2022-12-18T17:28:03;46.20;;;22.30;;
39176;SDS011;24904;52.208;21.192;2022-12-18T17:33:09;41.70;;;20.50;;
39176;SDS011;24904;52.208;21.192;2022-12-18T17:38:12;42.50;;;20.20;;
39176;SDS011;24904;52.208;21.192;2022-12-18T17:43:16;44.90;;;19.50;;
39176;SDS011;24904;52.208;21.192;2022-12-18T17:48:19;41.40;;;19.90;;
39176;SDS011;24904;52.208;21.192;2022-12-18T17:53:22;39.40;;;20.00;;
39176;SDS011;24904;52.208;21.192;2022-12-18T17:58:25;38.70;;;19.50;;
39176;SDS011;24904;52.208;21.192;2022-12-18T18:07:11;42.50;;;20.60;;
39176;SDS011;24904;52.208;21.192;2022-12-18T18:12:14;36.80;;;18.50;;
39176;SDS011;24904;52.208;21.192;2022-12-18T18:17:37;43.40;;;19.10;;
39176;SDS011;24904;52.208;21.192;2022-12-18T18:22:40;34.40;;;17.40;;
39176;SDS011;24904;52.208;21.192;2022-12-18T18:27:43;39.40;;;19.80;;
39176;SDS011;24904;52.208;21.192;2022-12-18T18:32:46;36.80;;;17.30;;
39176;SDS011;24904;52.208;21.192;2022-12-18T18:37:49;36.40;;;18.20;;
39176;SDS011;24904;52.208;21.192;2022-12-18T18:42:52;38.90;;;18.50;;
39176;SDS011;24904;52.208;21.192;2022-12-18T18:47:56;42.40;;;19.30;;
39176;SDS011;24904;52.208;21.192;2022-12-18T18:52:59;40.20;;;20.00;;
39176;SDS011;24904;52.208;21.192;2022-12-18T18:58:02;36.80;;;18.10;;
39176;SDS011;24904;52.208;21.192;2022-12-18T19:03:05;35.50;;;18.50;;
39176;SDS011;24904;52.208;21.192;2022-12-18T19:08:08;44.50;;;21.10;;
39176;SDS011;24904;52.208;21.192;2022-12-18T19:13:11;41.30;;;20.20;;
39176;SDS011;24904;52.208;21.192;2022-12-18T19:18:26;34.20;;;18.70;;
39176;SDS011;24904;52.208;21.192;2022-12-18T19:23:30;38.30;;;18.60;;
39176;SDS011;24904;52.208;21.192;2022-12-18T19:28:34;37.90;;;18.50;;
39176;SDS011;24904;52.208;21.192;2022-12-18T19:33:38;35.30;;;18.70;;
39176;SDS011;24904;52.208;21.192;2022-12-18T19:38:42;36.30;;;18.80;;
39176;SDS011;24904;52.208;21.192;2022-12-18T19:43:47;39.90;;;18.70;;
39176;SDS011;24904;52.208;21.192;2022-12-18T19:48:51;39.10;;;20.20;;
39176;SDS011;24904;52.208;21.192;2022-12-18T19:53:55;34.30;;;17.00;;
39176;SDS011;24904;52.208;21.192;2022-12-18T19:58:59;44.10;;;20.20;;
39176;SDS011;24904;52.208;21.192;2022-12-18T20:04:03;43.60;;;18.80;;
39176;SDS011;24904;52.208;21.192;2022-12-18T20:09:08;43.00;;;18.90;;
39176;SDS011;24904;52.208;21.192;2022-12-18T20:14:12;38.80;;;18.80;;
39176;SDS011;24904;52.208;21.192;2022-12-18T20:19:16;35.30;;;18.30;;
39176;SDS011;24904;52.208;21.192;2022-12-18T20:24:19;34.80;;;17.40;;
39176;SDS011;24904;52.208;21.192;2022-12-18T20:29:22;31.20;;;15.40;;
39176;SDS011;24904;52.208;21.192;2022-12-18T20:34:25;36.00;;;16.80;;
39176;SDS011;24904;52.208;21.192;2022-12-18T20:39:28;29.50;;;14.90;;
39176;SDS011;24904;52.208;21.192;2022-12-18T20:44:31;33.20;;;15.80;;
39176;SDS011;24904;52.208;21.192;2022-12-18T20:49:34;28.30;;;14.50;;
39176;SDS011;24904;52.208;21.192;2022-12-18T20:54:37;32.10;;;16.30;;
39176;SDS011;24904;52.208;21.192;2022-12-18T20:59:40;27.70;;;15.20;;
39176;SDS011;24904;52.208;21.192;2022-12-18T21:04:43;32.90;;;16.40;;
39176;SDS011;24904;52.208;21.192;2022-12-18T21:09:47;29.90;;;14.90;;
39176;SDS011;24904;52.208;21.192;2022-12-18T21:14:50;25.80;;;12.50;;
39176;SDS011;24904;52.208;21.192;2022-12-18T21:19:53;23.20;;;12.80;;
39176;SDS011;24904;52.208;21.192;2022-12-18T21:24:56;31.10;;;14.60;;
39176;SDS011;24904;52.208;21.192;2022-12-18T21:29:59;26.40;;;12.70;;
39176;SDS011;24904;52.208;21.192;2022-12-18T21:35:02;25.70;;;12.90;;
39176;SDS011;24904;52.208;21.192;2022-12-18T21:40:07;25.20;;;12.70;;
39176;SDS011;24904;52.208;21.192;2022-12-18T21:45:12;30.70;;;14.00;;
39176;SDS011;24904;52.208;21.192;2022-12-18T21:50:15;26.40;;;13.90;;
39176;SDS011;24904;52.208;21.192;2022-12-18T21:55:18;29.20;;;14.00;;
39176;SDS011;24904;52.208;21.192;2022-12-18T22:00:21;34.30;;;15.20;;
39176;SDS011;24904;52.208;21.192;2022-12-18T22:05:25;28.70;;;15.30;;
39176;SDS011;24904;52.208;21.192;2022-12-18T22:10:28;29.70;;;14.70;;
39176;SDS011;24904;52.208;21.192;2022-12-18T22:15:31;25.80;;;13.70;;
39176;SDS011;24904;52.208;21.192;2022-12-18T22:20:34;31.80;;;15.50;;
39176;SDS011;24904;52.208;21.192;2022-12-18T22:25:37;30.20;;;15.10;;
39176;SDS011;24904;52.208;21.192;2022-12-18T22:30:40;24.60;;;12.90;;
39176;SDS011;24904;52.208;21.192;2022-12-18T22:35:43;28.70;;;14.40;;
39176;SDS011;24904;52.208;21.192;2022-12-18T22:40:46;31.80;;;15.20;;
39176;SDS011;24904;52.208;21.192;2022-12-18T22:45:49;29.90;;;14.70;;
39176;SDS011;24904;52.208;21.192;2022-12-18T22:50:52;27.20;;;12.50;;
39176;SDS011;24904;52.208;21.192;2022-12-18T22:55:59;24.00;;;12.20;;
39176;SDS011;24904;52.208;21.192;2022-12-18T23:01:03;29.60;;;12.70;;
39176;SDS011;24904;52.208;21.192;2022-12-18T23:06:07;24.30;;;12.20;;
39176;SDS011;24904;52.208;21.192;2022-12-18T23:11:11;24.20;;;12.00;;
39176;SDS011;24904;52.208;21.192;2022-12-18T23:16:16;20.40;;;10.80;;
39176;SDS011;24904;52.208;21.192;2022-12-18T23:21:20;24.70;;;13.00;;
39176;SDS011;24904;52.208;21.192;2022-12-18T23:26:24;26.30;;;12.10;;
39176;SDS011;24904;52.208;21.192;2022-12-18T23:31:28;23.30;;;11.50;;
39176;SDS011;24904;52.208;21.192;2022-12-18T23:36:33;25.90;;;12.30;;
39176;SDS011;24904;52.208;21.192;2022-12-18T23:41:36;21.80;;;10.00;;
39176;SDS011;24904;52.208;21.192;2022-12-18T23:46:39;21.70;;;10.60;;
39176;SDS011;24904;52.208;21.192;2022-12-18T23:51:42;20.40;;;10.30;;
39176;SDS011;24904;52.208;21.192;2022-12-18T23:56:45;18.90;;;9.00;;
